Time;durP1;ratioP1;P1;durP2;ratioP2;P2;SDS_P1;SDS_P2;PMS_P1;PMS_P2;Temp;Humidity;BMP_temperature;BMP_pressure;BME280_temperature;BME280_humidity;BME280_pressure;Samples;Min_cycle;Max_cycle;Signal;HPM_P1;HPM_P2
2023/03/09 00:00:10;;;;;;;12.20;9.00;;;;;;;10.93;41.08;94284.50;4968254;28;20275;-67
2023/03/09 00:02:35;;;;;;;11.47;8.93;;;;;;;10.89;41.09;94297.19;4965207;28;20219;-66
2023/03/09 00:07:55;;;;;;;14.23;10.68;;;;;;;10.41;42.32;94279.78;4969020;28;20287;-65
2023/03/09 00:10:22;;;;;;;14.63;10.23;;;;;;;10.46;42.29;94298.50;4965362;28;20287;-65
2023/03/09 00:12:47;;;;;;;13.23;10.07;;;;;;;10.58;41.94;94297.97;4967240;28;20196;-65
2023/03/09 00:15:13;;;;;;;11.68;9.48;;;;;;;10.68;41.73;94276.72;4968041;28;20219;-66
2023/03/09 00:17:39;;;;;;;11.43;8.93;;;;;;;10.65;41.77;94281.50;4967229;28;20195;-66
2023/03/09 00:20:18;;;;;;;10.03;9.03;;;;;;;10.56;42.00;94281.53;4968579;28;20184;-66
2023/03/09 00:22:49;;;;;;;12.10;9.00;;;;;;;10.59;41.99;94289.09;4965549;28;20263;-66
2023/03/09 00:25:15;;;;;;;10.77;9.00;;;;;;;10.44;42.33;94290.78;4967360;28;20247;-68
2023/03/09 00:27:42;;;;;;;10.93;9.50;;;;;;;10.45;42.21;94271.41;4958148;28;20219;-65
2023/03/09 00:30:09;;;;;;;13.30;9.55;;;;;;;10.21;42.80;94281.91;4966898;28;20203;-67
2023/03/09 00:32:35;;;;;;;15.20;11.52;;;;;;;10.27;42.74;94268.97;4970452;28;20208;-66
2023/03/09 00:35:00;;;;;;;14.33;10.73;;;;;;;10.30;43.07;94280.97;4968225;28;20242;-67
2023/03/09 00:37:26;;;;;;;16.58;11.75;;;;;;;10.27;42.81;94289.16;4969019;28;20189;-67
2023/03/09 00:39:51;;;;;;;14.87;9.97;;;;;;;10.08;43.29;94267.50;4967257;28;20206;-67
2023/03/09 00:42:16;;;;;;;13.20;9.90;;;;;;;9.98;43.57;94268.69;4968539;28;20192;-67
2023/03/09 00:44:42;;;;;;;11.70;9.13;;;;;;;10.06;43.31;94266.03;4970235;28;20259;-68
2023/03/09 00:47:07;;;;;;;14.40;9.77;;;;;;;9.86;43.66;94260.31;4965516;28;20290;-68
2023/03/09 00:49:33;;;;;;;13.10;9.77;;;;;;;9.93;44.11;94253.41;4970025;28;20255;-66
2023/03/09 00:51:58;;;;;;;15.80;9.97;;;;;;;10.05;43.53;94257.34;4970557;28;20196;-67
2023/03/09 00:54:24;;;;;;;12.97;9.30;;;;;;;10.09;43.32;94242.88;4965486;28;20197;-66
2023/03/09 00:56:49;;;;;;;11.57;9.07;;;;;;;10.18;43.21;94240.22;4967891;28;20184;-67
2023/03/09 00:59:14;;;;;;;10.82;8.07;;;;;;;10.28;42.73;94256.66;4966647;28;20202;-66
2023/03/09 01:01:40;;;;;;;12.25;8.85;;;;;;;10.18;43.24;94245.47;4960166;28;20199;-67
2023/03/09 01:04:06;;;;;;;11.30;9.20;;;;;;;10.06;43.48;94251.09;4968648;28;20196;-67
2023/03/09 01:06:31;;;;;;;14.17;9.40;;;;;;;10.16;43.36;94251.72;4968723;28;20220;-74
2023/03/09 01:08:57;;;;;;;11.23;8.17;;;;;;;10.11;43.29;94251.41;4970769;28;20196;-73
2023/03/09 01:11:23;;;;;;;10.47;7.70;;;;;;;10.09;43.42;94250.75;4967564;28;20232;-74
2023/03/09 01:13:48;;;;;;;10.93;7.83;;;;;;;10.02;43.53;94269.97;4969137;28;20196;-73
2023/03/09 01:16:14;;;;;;;8.87;7.30;;;;;;;9.57;44.67;94251.16;4970937;28;20200;-73
2023/03/09 01:18:40;;;;;;;9.23;6.47;;;;;;;9.79;43.97;94246.22;4968499;28;20196;-73
2023/03/09 01:21:06;;;;;;;7.63;6.27;;;;;;;9.92;43.96;94241.28;4969616;28;20200;-73
2023/03/09 01:23:32;;;;;;;8.23;6.80;;;;;;;9.91;43.80;94239.63;4968805;28;20291;-72
2023/03/09 01:25:58;;;;;;;8.93;5.93;;;;;;;9.86;43.72;94220.91;4969617;28;20224;-73
2023/03/09 01:28:24;;;;;;;8.40;6.10;;;;;;;9.81;44.10;94210.09;4971323;28;20224;-74
2023/03/09 01:30:50;;;;;;;7.97;5.70;;;;;;;9.93;43.77;94224.53;4974887;28;20665;-74
2023/03/09 01:33:15;;;;;;;7.03;5.93;;;;;;;9.88;43.88;94230.28;4974956;28;20212;-74
2023/03/09 01:35:40;;;;;;;8.43;5.70;;;;;;;9.75;44.40;94221.28;4976396;28;20211;-74
2023/03/09 01:38:06;;;;;;;8.00;5.87;;;;;;;9.59;44.92;94224.72;4976598;28;20203;-74
2023/03/09 01:40:33;;;;;;;9.13;6.30;;;;;;;9.77;44.70;94250.81;4974016;28;20191;-72
2023/03/09 01:43:19;;;;;;;8.40;5.30;;;;;;;9.48;45.12;94226.69;4974468;28;20216;-73
2023/03/09 01:45:48;;;;;;;8.77;5.83;;;;;;;9.33;45.96;94189.00;4958714;28;20324;-74
2023/03/09 01:48:13;;;;;;;9.67;6.33;;;;;;;9.50;45.07;94197.69;4969390;28;20278;-74
2023/03/09 01:50:39;;;;;;;6.77;4.87;;;;;;;9.81;44.46;94199.59;4970450;28;20597;-73
2023/03/09 01:53:13;;;;;;;7.17;5.17;;;;;;;9.40;45.49;94207.50;4972660;28;20193;-73
2023/03/09 01:55:46;;;;;;;7.72;5.15;;;;;;;9.52;45.13;94208.84;4986325;28;20196;-73
2023/03/09 01:58:18;;;;;;;6.73;5.23;;;;;;;9.57;44.94;94200.44;4972779;28;20207;-73
2023/03/09 02:00:48;;;;;;;7.63;5.23;;;;;;;9.67;44.81;94203.72;4968562;28;20219;-74
2023/03/09 02:03:19;;;;;;;11.87;5.83;;;;;;;9.75;44.46;94197.63;4972925;28;20294;-74
2023/03/09 02:05:48;;;;;;;6.70;5.37;;;;;;;9.66;44.75;94197.66;4973018;28;20234;-74
2023/03/09 02:08:13;;;;;;;6.47;4.90;;;;;;;9.63;44.69;94200.63;4972261;28;20286;-74
2023/03/09 02:10:46;;;;;;;6.77;5.20;;;;;;;9.63;44.78;94208.50;4964027;28;20702;-74
2023/03/09 02:13:19;;;;;;;7.43;4.80;;;;;;;9.77;44.56;94211.44;4972673;28;20189;-73
2023/03/09 02:15:45;;;;;;;6.17;4.90;;;;;;;9.75;44.41;94226.53;4960851;28;20197;-73
2023/03/09 02:18:11;;;;;;;6.57;5.27;;;;;;;9.76;44.29;94215.88;4974436;28;20246;-73
2023/03/09 02:20:42;;;;;;;7.03;5.23;;;;;;;9.78;44.99;94215.69;4973815;28;20207;-72
2023/03/09 02:23:18;;;;;;;6.07;4.87;;;;;;;9.78;44.34;94218.31;4972818;28;20200;-72
2023/03/09 02:25:54;;;;;;;6.77;5.07;;;;;;;9.73;44.59;94218.81;4984471;28;20223;-72
2023/03/09 02:28:19;;;;;;;9.37;5.07;;;;;;;9.70;44.51;94219.97;4984146;28;20216;-72
2023/03/09 02:30:48;;;;;;;5.90;5.00;;;;;;;9.71;44.72;94224.22;4970099;28;20250;-72
2023/03/09 02:33:27;;;;;;;7.77;4.87;;;;;;;9.73;44.40;94226.69;4986794;28;20200;-72
2023/03/09 02:35:57;;;;;;;6.43;4.87;;;;;;;9.59;44.72;94219.47;4973016;28;20223;-74
2023/03/09 02:38:23;;;;;;;7.60;4.70;;;;;;;9.71;44.99;94226.84;4975071;28;20199;-75
2023/03/09 02:40:50;;;;;;;6.23;5.40;;;;;;;9.58;44.87;94216.03;4975341;28;20196;-74
2023/03/09 02:43:23;;;;;;;6.17;4.90;;;;;;;9.40;45.43;94220.63;4966028;28;20200;-73
2023/03/09 02:45:50;;;;;;;10.30;5.37;;;;;;;9.51;45.39;94238.66;4971570;28;20214;-74
2023/03/09 02:48:16;;;;;;;6.50;4.90;;;;;;;9.47;45.77;94235.56;4968838;28;20219;-74
2023/03/09 02:50:41;;;;;;;8.03;4.93;;;;;;;9.56;45.04;94215.38;4974028;28;20204;-74
2023/03/09 02:53:07;;;;;;;6.23;5.13;;;;;;;9.51;45.19;94215.03;4970779;28;20191;-73
2023/03/09 02:55:32;;;;;;;5.57;4.40;;;;;;;9.47;45.48;94209.31;4973492;28;20207;-73
2023/03/09 02:57:58;;;;;;;5.33;4.63;;;;;;;9.42;45.66;94222.09;4972961;28;20192;-73
2023/03/09 03:00:24;;;;;;;5.53;4.50;;;;;;;9.59;45.44;94222.09;4971190;28;20200;-74
2023/03/09 03:02:50;;;;;;;7.00;4.40;;;;;;;9.51;45.38;94236.03;4973932;28;20192;-74
2023/03/09 03:05:15;;;;;;;4.80;4.30;;;;;;;9.56;45.13;94230.31;4971356;28;20203;-74
2023/03/09 03:07:41;;;;;;;7.27;4.20;;;;;;;9.60;45.24;94242.13;4972787;28;20302;-74
2023/03/09 03:10:07;;;;;;;5.97;4.27;;;;;;;9.58;45.22;94237.03;4974789;28;20286;-74
2023/03/09 03:12:33;;;;;;;6.50;4.40;;;;;;;9.64;45.05;94241.63;4969476;28;20209;-72
2023/03/09 03:14:58;;;;;;;5.87;4.27;;;;;;;9.63;45.05;94245.25;4971180;28;20228;-73
2023/03/09 03:17:24;;;;;;;8.13;4.17;;;;;;;9.57;45.67;94238.03;4970277;28;20257;-73
2023/03/09 03:19:49;;;;;;;5.27;4.20;;;;;;;9.68;44.83;94236.88;4970098;28;20212;-73
2023/03/09 03:22:15;;;;;;;6.00;4.67;;;;;;;9.60;45.39;94247.38;4970149;28;20282;-73
2023/03/09 03:24:40;;;;;;;4.67;4.17;;;;;;;9.70;44.69;94251.47;4971527;28;20287;-73
2023/03/09 03:27:06;;;;;;;9.07;4.03;;;;;;;9.71;44.86;94239.97;4972424;28;20220;-73
2023/03/09 03:29:32;;;;;;;5.43;3.80;;;;;;;9.70;44.87;94237.50;4971846;28;20203;-73
2023/03/09 03:31:58;;;;;;;7.00;4.37;;;;;;;9.24;45.75;94243.25;4971129;28;20231;-74
2023/03/09 03:34:23;;;;;;;5.97;4.10;;;;;;;9.03;46.22;94248.97;4970653;28;20219;-74
2023/03/09 03:36:49;;;;;;;5.27;4.00;;;;;;;9.15;46.36;94262.59;4973976;28;20271;-74
2023/03/09 03:39:14;;;;;;;4.23;3.70;;;;;;;9.36;45.58;94248.19;4971731;28;20192;-73
2023/03/09 03:41:40;;;;;;;7.40;4.13;;;;;;;9.40;45.51;94244.25;4972061;28;20199;-74
2023/03/09 03:44:05;;;;;;;9.57;4.60;;;;;;;9.50;45.58;94247.53;4970195;28;20279;-73
2023/03/09 03:46:31;;;;;;;4.43;3.57;;;;;;;9.41;45.68;94245.88;4968827;28;20265;-73
2023/03/09 03:48:56;;;;;;;4.97;4.10;;;;;;;9.43;45.55;94257.84;4967923;28;20196;-73
2023/03/09 03:51:23;;;;;;;5.30;3.73;;;;;;;9.34;45.54;94255.41;4967431;28;20200;-74
2023/03/09 03:53:48;;;;;;;6.53;4.00;;;;;;;9.27;45.70;94244.72;4970559;28;20200;-73
2023/03/09 03:56:14;;;;;;;5.60;3.90;;;;;;;9.26;46.04;94262.28;4967024;28;20418;-73
2023/03/09 03:58:39;;;;;;;6.40;4.40;;;;;;;9.35;45.86;94252.59;4968773;28;20278;-74
2023/03/09 04:01:06;;;;;;;9.70;4.60;;;;;;;9.45;45.59;94250.63;4971611;28;20188;-74
2023/03/09 04:03:31;;;;;;;5.07;4.10;;;;;;;9.37;45.84;94239.34;4971451;28;20200;-74
2023/03/09 04:05:57;;;;;;;6.53;4.30;;;;;;;9.39;45.65;94237.38;4971076;28;20199;-73
2023/03/09 04:08:22;;;;;;;11.07;4.00;;;;;;;9.36;45.75;94248.19;4963996;28;20216;-73
2023/03/09 04:10:48;;;;;;;6.03;3.93;;;;;;;9.33;46.16;94238.84;4957597;28;20297;-75
2023/03/09 04:13:13;;;;;;;6.10;4.07;;;;;;;9.39;45.99;94247.88;4967304;28;20212;-74
2023/03/09 04:15:39;;;;;;;5.60;3.47;;;;;;;9.33;45.88;94244.09;4972243;28;20196;-74
2023/03/09 04:18:04;;;;;;;5.17;3.80;;;;;;;9.42;45.74;94242.28;4972729;28;20196;-74
2023/03/09 04:20:30;;;;;;;5.57;3.67;;;;;;;9.34;45.78;94229.16;4970627;28;20287;-74
2023/03/09 04:22:55;;;;;;;6.63;3.60;;;;;;;9.33;45.78;94243.25;4969574;28;20199;-74
2023/03/09 04:25:21;;;;;;;4.80;4.00;;;;;;;9.28;46.17;94246.38;4968515;28;20203;-73
2023/03/09 04:27:46;;;;;;;5.50;4.00;;;;;;;9.31;46.06;94229.50;4964567;28;20216;-73
2023/03/09 04:30:13;;;;;;;10.67;4.37;;;;;;;9.29;46.23;94216.53;4970410;28;20196;-73
2023/03/09 04:32:38;;;;;;;5.90;3.90;;;;;;;9.30;45.90;94222.59;4970387;28;20195;-72
2023/03/09 04:35:05;;;;;;;7.90;3.83;;;;;;;9.29;46.06;94224.41;4968694;28;20215;-75
2023/03/09 04:37:31;;;;;;;7.53;3.97;;;;;;;9.35;46.00;94217.69;4966354;28;20291;-67
2023/03/09 04:39:56;;;;;;;7.00;4.27;;;;;;;9.27;45.93;94227.19;4970484;28;20227;-67
2023/03/09 04:42:22;;;;;;;5.10;3.97;;;;;;;9.36;46.00;94222.78;4968398;28;20235;-73
2023/03/09 04:44:47;;;;;;;6.87;4.13;;;;;;;9.29;46.07;94200.78;4971045;28;20196;-71
2023/03/09 04:47:13;;;;;;;4.90;3.53;;;;;;;9.30;46.49;94217.34;4971254;28;20235;-69
2023/03/09 04:49:42;;;;;;;10.03;4.97;;;;;;;8.89;47.74;94198.94;4966962;28;20268;-74
2023/03/09 04:52:08;;;;;;;7.40;4.23;;;;;;;9.11;47.22;94187.00;4969445;28;20701;-69
2023/03/09 04:54:34;;;;;;;8.67;4.20;;;;;;;8.93;47.63;94226.50;4963298;28;20204;-70
2023/03/09 04:56:59;;;;;;;8.67;4.37;;;;;;;8.24;49.31;94212.66;4969588;28;20180;-70
2023/03/09 04:59:24;;;;;;;5.73;4.40;;;;;;;8.66;48.37;94201.34;4969286;28;20200;-68
2023/03/09 05:01:50;;;;;;;6.43;4.27;;;;;;;8.80;48.30;94206.81;4972293;28;20199;-67
2023/03/09 05:04:16;;;;;;;9.83;4.90;;;;;;;8.82;47.93;94207.47;4973911;28;20250;-67
2023/03/09 05:06:41;;;;;;;12.27;5.47;;;;;;;8.92;47.69;94199.44;4974227;28;20203;-67
2023/03/09 05:09:07;;;;;;;7.63;4.90;;;;;;;8.95;47.78;94203.53;4974453;28;20212;-67
2023/03/09 05:11:33;;;;;;;12.07;5.53;;;;;;;8.63;48.79;94207.72;4972631;28;20232;-68
2023/03/09 05:13:58;;;;;;;7.10;5.00;;;;;;;8.86;48.63;94209.75;4972577;28;20212;-66
2023/03/09 05:16:24;;;;;;;14.73;5.37;;;;;;;8.98;48.11;94222.41;4970839;28;20224;-65
2023/03/09 05:18:50;;;;;;;13.40;6.50;;;;;;;8.92;47.96;94203.88;4973427;28;20198;-67
2023/03/09 05:21:16;;;;;;;12.27;6.70;;;;;;;8.97;47.54;94201.59;4966982;28;20188;-69
2023/03/09 05:23:42;;;;;;;12.60;6.70;;;;;;;9.06;47.76;94197.97;4974567;28;20192;-70
2023/03/09 05:26:07;;;;;;;11.20;6.43;;;;;;;9.15;47.63;94210.13;4970029;28;20569;-67
2023/03/09 05:28:38;;;;;;;11.23;5.77;;;;;;;9.11;47.72;94206.19;4971724;28;20302;-67
2023/03/09 05:31:13;;;;;;;8.63;5.87;;;;;;;9.17;47.23;94208.16;4974020;28;20276;-65
2023/03/09 05:33:38;;;;;;;9.60;5.47;;;;;;;9.10;47.15;94216.84;4970662;28;20282;-67
2023/03/09 05:36:15;;;;;;;11.37;5.20;;;;;;;8.84;47.89;94212.53;4972468;28;20298;-67
2023/03/09 05:38:41;;;;;;;10.30;5.23;;;;;;;9.13;47.28;94227.81;4970286;28;20184;-69
2023/03/09 05:41:06;;;;;;;10.10;5.77;;;;;;;9.21;46.97;94227.84;4968360;28;20188;-68
2023/03/09 05:43:32;;;;;;;10.20;5.63;;;;;;;8.99;48.06;94241.59;4972371;28;20188;-67
2023/03/09 05:45:57;;;;;;;12.77;7.23;;;;;;;8.95;48.21;94220.09;4970475;28;20293;-68
2023/03/09 05:48:23;;;;;;;12.73;6.60;;;;;;;9.07;48.10;94235.53;4972920;28;20218;-67
2023/03/09 05:50:49;;;;;;;16.90;6.43;;;;;;;9.20;47.20;94222.78;4972194;28;20215;-68
2023/03/09 05:53:14;;;;;;;10.17;6.37;;;;;;;9.26;47.94;94228.16;4970371;28;20200;-74
2023/03/09 05:55:39;;;;;;;10.67;6.60;;;;;;;9.31;47.65;94232.13;4973096;28;20351;-74
2023/03/09 05:58:05;;;;;;;11.03;6.60;;;;;;;9.41;47.47;94245.88;4969402;28;20300;-74
2023/03/09 06:00:30;;;;;;;15.10;6.50;;;;;;;9.45;47.14;94248.00;4970709;28;20200;-73
2023/03/09 06:02:56;;;;;;;17.43;7.53;;;;;;;9.52;47.21;94245.56;4972946;28;20264;-74
2023/03/09 06:05:21;;;;;;;11.50;6.20;;;;;;;9.55;47.19;94252.31;4988098;28;20196;-72
2023/03/09 06:07:46;;;;;;;12.13;6.77;;;;;;;9.30;47.55;94251.44;4971238;28;20216;-73
2023/03/09 06:10:12;;;;;;;11.93;6.00;;;;;;;9.43;47.58;94257.84;4973596;28;20204;-74
2023/03/09 06:12:38;;;;;;;15.27;6.47;;;;;;;9.57;46.93;94256.41;4971092;28;20228;-74
2023/03/09 06:15:04;;;;;;;10.93;6.10;;;;;;;9.58;47.28;94267.72;4969769;28;20228;-73
2023/03/09 06:17:30;;;;;;;11.07;6.40;;;;;;;9.72;46.61;94269.66;4971057;28;20189;-73
2023/03/09 06:19:55;;;;;;;10.33;6.53;;;;;;;9.64;47.03;94267.88;4966955;28;20251;-68
2023/03/09 06:22:20;;;;;;;14.80;6.03;;;;;;;9.47;47.68;94255.75;4964091;28;20193;-69
2023/03/09 06:24:46;;;;;;;18.33;7.03;;;;;;;9.42;47.12;94242.28;4971062;28;20239;-67
2023/03/09 06:27:11;;;;;;;13.03;6.37;;;;;;;9.31;47.70;94248.69;4967550;28;20605;-68
2023/03/09 06:29:37;;;;;;;11.17;5.43;;;;;;;9.47;46.71;94253.94;4964876;28;20212;-70
2023/03/09 06:32:02;;;;;;;11.63;5.13;;;;;;;9.72;46.26;94254.72;4970579;28;20238;-69
2023/03/09 06:34:29;;;;;;;10.77;4.93;;;;;;;9.83;45.71;94250.13;4966625;28;20192;-69
2023/03/09 06:36:54;;;;;;;32.63;6.23;;;;;;;9.81;46.00;94255.56;4971102;28;20199;-69
2023/03/09 06:39:20;;;;;;;7.80;4.23;;;;;;;10.09;44.76;94245.50;4969341;28;20207;-69
2023/03/09 06:41:45;;;;;;;7.73;4.47;;;;;;;10.33;43.98;94256.97;4969818;28;20195;-69
2023/03/09 06:44:11;;;;;;;7.97;4.18;;;;;;;10.31;44.29;94261.56;4969766;28;20196;-68
2023/03/09 06:46:36;;;;;;;7.27;4.00;;;;;;;10.50;43.60;94258.53;4966005;28;20215;-69
2023/03/09 06:49:02;;;;;;;8.10;4.40;;;;;;;10.38;43.92;94233.63;4968308;28;20192;-69
2023/03/09 06:51:31;;;;;;;7.80;4.05;;;;;;;10.41;43.80;94243.81;4970747;28;20207;-69
2023/03/09 06:53:57;;;;;;;6.85;3.78;;;;;;;10.53;43.53;94226.69;4954385;28;20203;-68
2023/03/09 06:56:23;;;;;;;5.37;3.93;;;;;;;10.36;43.80;94225.09;4963409;28;20235;-66
2023/03/09 06:58:48;;;;;;;5.80;3.90;;;;;;;10.28;44.07;94230.38;4968191;28;20208;-67
2023/03/09 07:01:15;;;;;;;6.83;4.30;;;;;;;10.41;43.81;94207.00;4969110;28;20393;-67
2023/03/09 07:03:41;;;;;;;8.53;5.00;;;;;;;10.55;43.45;94227.31;4967461;28;20234;-67
2023/03/09 07:06:07;;;;;;;12.00;5.40;;;;;;;10.60;43.58;94222.38;4969736;28;20834;-67
2023/03/09 07:08:32;;;;;;;8.37;4.93;;;;;;;10.73;43.33;94218.38;4966587;28;20255;-67
2023/03/09 07:10:59;;;;;;;9.00;5.90;;;;;;;10.82;43.11;94225.22;4967754;28;20212;-67
2023/03/09 07:13:24;;;;;;;10.67;5.93;;;;;;;10.80;42.91;94221.97;4969453;28;20188;-67
2023/03/09 07:15:50;;;;;;;7.30;4.80;;;;;;;10.46;43.46;94215.22;4970957;28;20202;-66
2023/03/09 07:18:15;;;;;;;9.07;5.33;;;;;;;10.62;43.52;94219.56;4967597;28;20196;-66
2023/03/09 07:20:41;;;;;;;5.73;5.00;;;;;;;10.62;43.61;94222.19;4969126;28;20200;-65
2023/03/09 07:23:08;;;;;;;5.33;4.27;;;;;;;10.73;43.14;94236.78;4965623;28;20742;-67
2023/03/09 07:25:35;;;;;;;10.65;5.40;;;;;;;10.84;42.71;94222.44;4965736;28;20192;-66
2023/03/09 07:28:03;;;;;;;10.13;4.80;;;;;;;10.95;42.35;94220.22;4969938;28;20291;-67
2023/03/09 07:30:29;;;;;;;8.43;5.10;;;;;;;11.08;42.09;94218.84;4982690;28;20221;-67
2023/03/09 07:32:58;;;;;;;6.28;4.70;;;;;;;11.19;42.46;94226.31;4964358;28;20197;-67
2023/03/09 07:35:25;;;;;;;9.57;5.18;;;;;;;11.19;41.90;94236.84;4966309;28;20350;-65
2023/03/09 07:37:51;;;;;;;7.15;5.30;;;;;;;11.38;41.64;94246.09;4969539;28;20192;-66
2023/03/09 07:40:17;;;;;;;10.52;6.55;;;;;;;11.40;41.50;94247.56;4969610;28;20199;-66
2023/03/09 07:42:42;;;;;;;9.18;5.57;;;;;;;11.47;41.55;94245.88;4969034;28;20199;-66
2023/03/09 07:45:08;;;;;;;9.23;5.90;;;;;;;11.33;41.62;94245.78;4969699;28;20180;-67
2023/03/09 07:47:34;;;;;;;12.48;5.90;;;;;;;11.39;41.58;94239.84;4968004;28;20215;-67
2023/03/09 07:50:00;;;;;;;8.48;6.00;;;;;;;11.41;41.82;94246.59;4966069;28;20219;-66
2023/03/09 07:52:30;;;;;;;10.82;6.70;;;;;;;11.35;41.81;94225.38;4966207;28;20220;-66
2023/03/09 07:55:00;;;;;;;10.30;6.18;;;;;;;11.48;41.37;94239.59;4968621;28;20199;-71
2023/03/09 07:57:35;;;;;;;11.23;6.75;;;;;;;11.52;41.52;94228.72;4967266;28;20945;-71
2023/03/09 08:00:05;;;;;;;14.63;7.20;;;;;;;11.48;42.35;94242.22;4971300;28;20215;-71
2023/03/09 08:02:31;;;;;;;10.90;5.88;;;;;;;11.59;41.79;94242.81;4965433;28;20193;-70
2023/03/09 08:04:57;;;;;;;10.77;6.78;;;;;;;11.44;41.82;94237.47;4967399;28;20243;-70
2023/03/09 08:07:22;;;;;;;11.15;6.47;;;;;;;11.54;42.30;94234.63;4969009;28;20219;-70
2023/03/09 08:09:47;;;;;;;9.25;6.50;;;;;;;11.55;41.72;94241.53;4968576;28;20188;-66
2023/03/09 08:12:13;;;;;;;12.35;6.90;;;;;;;11.70;41.58;94245.03;4966867;28;20247;-65
2023/03/09 08:14:38;;;;;;;10.00;6.00;;;;;;;11.90;40.85;94245.38;4967900;28;20598;-68
2023/03/09 08:17:04;;;;;;;8.55;6.18;;;;;;;11.90;41.57;94251.47;4966915;28;20181;-69
2023/03/09 08:19:30;;;;;;;8.30;6.07;;;;;;;11.83;41.55;94247.06;4968053;28;20188;-69
2023/03/09 08:21:56;;;;;;;8.95;5.63;;;;;;;12.01;40.77;94250.22;4966786;28;20211;-69
2023/03/09 08:24:22;;;;;;;10.68;7.07;;;;;;;12.01;40.81;94238.88;4966788;28;20192;-65
2023/03/09 08:26:48;;;;;;;9.98;6.13;;;;;;;12.05;41.05;94246.22;4965041;28;20208;-65
2023/03/09 08:29:14;;;;;;;9.82;6.57;;;;;;;12.12;40.79;94252.41;4966756;28;20269;-65
2023/03/09 08:31:39;;;;;;;9.55;7.18;;;;;;;12.29;40.45;94239.06;4968628;28;20188;-60
2023/03/09 08:34:05;;;;;;;11.80;6.38;;;;;;;12.28;40.58;94238.25;4970429;28;20222;-66
2023/03/09 08:36:30;;;;;;;7.68;5.57;;;;;;;12.03;41.41;94231.56;4971213;28;20203;-62
2023/03/09 08:38:56;;;;;;;7.28;5.82;;;;;;;12.14;41.11;94237.25;4972734;28;20187;-63
2023/03/09 08:41:22;;;;;;;5.13;4.55;;;;;;;12.20;41.07;94222.53;4971343;28;20282;-65
2023/03/09 08:43:49;;;;;;;6.97;5.00;;;;;;;12.28;41.05;94232.97;4969751;28;20880;-66
2023/03/09 08:46:14;;;;;;;9.00;4.88;;;;;;;12.35;41.03;94227.81;4971987;28;20194;-67
2023/03/09 08:48:40;;;;;;;8.38;5.32;;;;;;;12.41;40.64;94205.16;4972756;28;20215;-66
2023/03/09 08:51:08;;;;;;;8.68;4.93;;;;;;;12.36;40.91;94219.69;4972772;28;20192;-66
2023/03/09 08:53:35;;;;;;;8.77;4.90;;;;;;;12.58;40.35;94214.50;4968199;28;20199;-66
2023/03/09 08:56:06;;;;;;;9.40;4.75;;;;;;;12.76;40.37;94214.13;4967475;28;20218;-66
2023/03/09 08:58:32;;;;;;;8.13;4.07;;;;;;;12.82;39.79;94217.84;4970780;28;20210;-67
2023/03/09 09:01:00;;;;;;;8.98;4.60;;;;;;;12.93;39.85;94225.28;4972963;28;20704;-67
2023/03/09 09:03:26;;;;;;;8.45;5.30;;;;;;;12.98;39.72;94210.53;4973493;28;20246;-66
2023/03/09 09:05:52;;;;;;;5.40;4.53;;;;;;;12.92;40.07;94213.91;4968410;28;20189;-65
2023/03/09 09:08:17;;;;;;;9.35;4.65;;;;;;;12.99;39.76;94196.34;4972711;28;20215;-65
2023/03/09 09:10:45;;;;;;;10.00;4.85;;;;;;;13.23;39.29;94192.53;4970614;28;20219;-68
2023/03/09 09:13:10;;;;;;;11.00;5.30;;;;;;;12.99;40.08;94198.13;4972387;28;20228;-67
2023/03/09 09:15:37;;;;;;;15.73;5.03;;;;;;;12.98;40.36;94180.69;4970646;28;20190;-67
2023/03/09 09:18:03;;;;;;;6.70;4.40;;;;;;;12.95;40.15;94175.78;4956686;28;20279;-65
2023/03/09 09:20:29;;;;;;;7.45;4.50;;;;;;;13.01;40.52;94169.75;4956597;28;20271;-67
2023/03/09 09:22:54;;;;;;;11.23;5.15;;;;;;;12.99;39.80;94166.47;4966789;28;20200;-67
2023/03/09 09:25:20;;;;;;;11.90;4.82;;;;;;;13.00;40.46;94171.56;4968890;28;20192;-67
2023/03/09 09:27:50;;;;;;;12.48;5.90;;;;;;;12.96;40.44;94169.50;4971544;28;20212;-65
2023/03/09 09:30:16;;;;;;;10.30;6.75;;;;;;;12.92;40.48;94171.69;4968618;28;20236;-65
2023/03/09 09:32:42;;;;;;;11.00;6.80;;;;;;;12.91;40.47;94169.22;4968629;28;20196;-67
2023/03/09 09:35:08;;;;;;;10.93;7.13;;;;;;;12.61;40.70;94164.03;4964575;28;20283;-65
2023/03/09 09:37:33;;;;;;;10.00;6.63;;;;;;;12.79;40.61;94161.81;4967719;28;20217;-64
2023/03/09 09:39:58;;;;;;;12.13;7.38;;;;;;;12.92;40.12;94157.69;4971383;28;20262;-64
2023/03/09 09:42:37;;;;;;;10.50;6.25;;;;;;;12.96;40.55;94162.41;4962924;28;20288;-64
2023/03/09 09:45:05;;;;;;;6.88;5.07;;;;;;;13.01;40.02;94146.00;4971259;28;20199;-65
2023/03/09 09:47:32;;;;;;;10.38;4.82;;;;;;;13.23;39.69;94155.56;4971047;28;20211;-65
2023/03/09 09:50:01;;;;;;;6.43;4.45;;;;;;;13.27;40.08;94153.38;4969219;28;20308;-66
2023/03/09 09:52:46;;;;;;;11.20;4.63;;;;;;;13.36;39.39;94146.16;4969162;28;20212;-65
2023/03/09 09:55:30;;;;;;;8.15;5.00;;;;;;;13.58;39.78;94146.94;4967916;28;20195;-66
2023/03/09 09:58:09;;;;;;;7.85;4.78;;;;;;;13.59;39.13;94130.91;4965367;28;20207;-65
2023/03/09 10:00:40;;;;;;;5.38;4.10;;;;;;;13.78;38.80;94136.53;4971096;28;20200;-65
2023/03/09 10:03:12;;;;;;;7.43;4.63;;;;;;;13.84;38.79;94133.91;4954870;28;20200;-65
2023/03/09 10:05:50;;;;;;;8.10;5.38;;;;;;;13.89;39.10;94136.78;4970848;28;20196;-65
2023/03/09 10:08:25;;;;;;;8.30;4.13;;;;;;;14.17;38.83;94124.56;4971285;28;20247;-67
2023/03/09 10:10:51;;;;;;;7.50;3.67;;;;;;;14.41;38.32;94113.50;4969317;28;20214;-65
2023/03/09 10:13:41;;;;;;;6.88;3.80;;;;;;;14.54;38.19;94113.59;4964308;28;20232;-65
2023/03/09 10:16:13;;;;;;;7.60;4.22;;;;;;;14.72;37.29;94104.25;4968292;28;20291;-65
2023/03/09 10:18:45;;;;;;;7.82;4.28;;;;;;;14.92;36.71;94101.69;4968786;28;20188;-68
2023/03/09 10:21:29;;;;;;;7.35;4.63;;;;;;;14.99;36.71;94098.03;4970566;28;20192;-67
2023/03/09 10:23:57;;;;;;;7.28;3.85;;;;;;;14.95;36.79;94096.78;4967180;28;20200;-67
2023/03/09 10:26:44;;;;;;;7.82;3.33;;;;;;;15.04;36.41;94093.94;4971888;28;20198;-65
2023/03/09 10:29:29;;;;;;;5.53;3.45;;;;;;;15.06;36.85;94094.56;4960847;28;20216;-67
2023/03/09 10:32:03;;;;;;;5.90;4.32;;;;;;;15.17;36.33;94086.03;4943778;28;20192;-65
2023/03/09 10:34:34;;;;;;;8.00;3.45;;;;;;;15.17;36.42;94080.72;4965145;28;20220;-66
2023/03/09 10:37:15;;;;;;;6.50;3.47;;;;;;;15.35;36.50;94073.00;4982170;28;20188;-66
2023/03/09 10:39:45;;;;;;;5.47;3.90;;;;;;;15.53;36.29;94071.53;4971374;28;20282;-65
2023/03/09 10:42:18;;;;;;;9.18;3.17;;;;;;;15.60;35.67;94067.06;4969306;28;20271;-66
2023/03/09 10:44:53;;;;;;;6.43;3.95;;;;;;;15.70;36.96;94061.38;4966216;28;20224;-65
2023/03/09 10:47:19;;;;;;;7.72;3.58;;;;;;;15.50;36.71;94053.41;4959903;28;20200;-65
2023/03/09 10:50:09;;;;;;;4.75;3.13;;;;;;;15.68;36.53;94050.94;4966643;28;20215;-65
2023/03/09 10:52:34;;;;;;;5.82;3.53;;;;;;;15.90;36.12;94040.13;4965424;28;20196;-65
2023/03/09 10:55:00;;;;;;;6.47;2.25;;;;;;;16.05;35.30;94030.09;4971832;28;20250;-65
2023/03/09 10:57:30;;;;;;;4.57;2.35;;;;;;;16.21;34.82;94039.41;4966258;28;20252;-66
2023/03/09 11:00:06;;;;;;;5.20;2.95;;;;;;;16.24;35.01;94031.03;4967500;28;20188;-65
2023/03/09 11:02:35;;;;;;;5.93;2.20;;;;;;;16.24;35.06;94029.19;4965761;28;20199;-68
2023/03/09 11:05:20;;;;;;;5.10;2.08;;;;;;;16.44;35.06;94007.03;4964570;28;20204;-66
2023/03/09 11:07:57;;;;;;;4.68;2.30;;;;;;;17.00;34.04;94022.28;4970449;28;20216;-68
2023/03/09 11:10:32;;;;;;;5.03;2.45;;;;;;;16.73;34.71;94010.97;4967986;28;20199;-67
2023/03/09 11:12:59;;;;;;;6.30;2.38;;;;;;;16.83;33.91;94011.34;4967017;28;20231;-69
2023/03/09 11:15:29;;;;;;;3.88;1.45;;;;;;;16.65;34.53;93992.63;4965824;28;20897;-69
2023/03/09 11:17:57;;;;;;;2.65;1.50;;;;;;;16.99;33.67;93996.72;4968963;28;20199;-68
2023/03/09 11:20:25;;;;;;;2.20;1.38;;;;;;;16.78;34.71;93997.09;4968276;28;20263;-68
2023/03/09 11:22:59;;;;;;;1.45;1.15;;;;;;;16.97;33.84;93990.81;4966172;28;20192;-68
2023/03/09 11:25:57;;;;;;;2.00;1.42;;;;;;;16.90;33.80;93985.56;4970052;28;20188;-69
2023/03/09 11:28:44;;;;;;;1.00;0.90;;;;;;;17.15;33.45;93977.59;4930288;29;20220;-69
2023/03/09 11:31:13;;;;;;;1.65;0.98;;;;;;;17.24;33.08;93966.69;4934466;29;20208;-69
2023/03/09 11:33:38;;;;;;;3.00;1.10;;;;;;;17.47;32.89;93961.56;4943827;29;20297;-70
2023/03/09 11:36:05;;;;;;;2.80;1.10;;;;;;;17.37;32.53;93958.59;4934696;29;20201;-71
2023/03/09 11:38:32;;;;;;;1.95;1.00;;;;;;;17.55;32.54;93958.63;4931241;29;20200;-68